sensor_id;sensor_type;location;lat;lon;timestamp;P1;durP1;ratioP1;P2;durP2;ratioP2
10491;SDS011;5293;51.464;-2.566;2023-02-28T00:01:24;6.00;;;2.60;;
10491;SDS011;5293;51.464;-2.566;2023-02-28T00:03:49;8.07;;;3.07;;
10491;SDS011;5293;51.464;-2.566;2023-02-28T00:06:16;7.00;;;3.30;;
10491;SDS011;5293;51.464;-2.566;2023-02-28T00:08:41;7.83;;;3.13;;
10491;SDS011;5293;51.464;-2.566;2023-02-28T00:11:09;5.00;;;2.60;;
10491;SDS011;5293;51.464;-2.566;2023-02-28T00:13:38;9.47;;;3.87;;
10491;SDS011;5293;51.464;-2.566;2023-02-28T00:16:12;10.10;;;4.13;;
10491;SDS011;5293;51.464;-2.566;2023-02-28T00:18:42;8.60;;;3.90;;
10491;SDS011;5293;51.464;-2.566;2023-02-28T00:21:08;7.50;;;3.97;;
10491;SDS011;5293;51.464;-2.566;2023-02-28T00:23:34;7.07;;;3.80;;
10491;SDS011;5293;51.464;-2.566;2023-02-28T00:26:00;9.93;;;3.80;;
10491;SDS011;5293;51.464;-2.566;2023-02-28T00:28:26;11.33;;;4.17;;
10491;SDS011;5293;51.464;-2.566;2023-02-28T00:30:52;8.83;;;3.90;;
10491;SDS011;5293;51.464;-2.566;2023-02-28T00:33:17;9.43;;;3.80;;
10491;SDS011;5293;51.464;-2.566;2023-02-28T00:35:43;9.17;;;3.63;;
10491;SDS011;5293;51.464;-2.566;2023-02-28T00:38:11;5.93;;;2.83;;
10491;SDS011;5293;51.464;-2.566;2023-02-28T00:40:38;4.33;;;2.97;;
10491;SDS011;5293;51.464;-2.566;2023-02-28T00:43:03;6.87;;;2.73;;
10491;SDS011;5293;51.464;-2.566;2023-02-28T00:45:29;6.00;;;2.77;;
10491;SDS011;5293;51.464;-2.566;2023-02-28T00:47:55;5.10;;;2.90;;
10491;SDS011;5293;51.464;-2.566;2023-02-28T00:50:21;6.30;;;3.20;;
10491;SDS011;5293;51.464;-2.566;2023-02-28T00:52:47;7.97;;;4.03;;
10491;SDS011;5293;51.464;-2.566;2023-02-28T00:55:12;9.20;;;4.00;;
10491;SDS011;5293;51.464;-2.566;2023-02-28T00:57:38;10.60;;;3.83;;
10491;SDS011;5293;51.464;-2.566;2023-02-28T01:00:05;10.50;;;4.67;;
10491;SDS011;5293;51.464;-2.566;2023-02-28T01:02:31;6.80;;;4.47;;
10491;SDS011;5293;51.464;-2.566;2023-02-28T01:04:56;10.20;;;4.10;;
10491;SDS011;5293;51.464;-2.566;2023-02-28T01:07:23;8.10;;;4.53;;
10491;SDS011;5293;51.464;-2.566;2023-02-28T01:09:48;8.33;;;4.17;;
10491;SDS011;5293;51.464;-2.566;2023-02-28T01:12:14;9.77;;;3.83;;
10491;SDS011;5293;51.464;-2.566;2023-02-28T01:14:40;5.47;;;3.30;;
10491;SDS011;5293;51.464;-2.566;2023-02-28T01:17:06;8.50;;;3.80;;
10491;SDS011;5293;51.464;-2.566;2023-02-28T01:19:32;8.47;;;4.50;;
10491;SDS011;5293;51.464;-2.566;2023-02-28T01:22:00;9.37;;;4.33;;
10491;SDS011;5293;51.464;-2.566;2023-02-28T01:24:27;6.57;;;3.97;;
10491;SDS011;5293;51.464;-2.566;2023-02-28T01:26:53;7.57;;;3.87;;
10491;SDS011;5293;51.464;-2.566;2023-02-28T01:29:18;9.77;;;4.50;;
10491;SDS011;5293;51.464;-2.566;2023-02-28T01:31:44;9.13;;;4.60;;
10491;SDS011;5293;51.464;-2.566;2023-02-28T01:34:10;8.47;;;4.63;;
10491;SDS011;5293;51.464;-2.566;2023-02-28T01:36:35;9.27;;;3.97;;
10491;SDS011;5293;51.464;-2.566;2023-02-28T01:39:02;5.27;;;3.70;;
10491;SDS011;5293;51.464;-2.566;2023-02-28T01:41:28;7.67;;;3.63;;
10491;SDS011;5293;51.464;-2.566;2023-02-28T01:44:06;10.07;;;4.13;;
10491;SDS011;5293;51.464;-2.566;2023-02-28T01:46:51;11.23;;;4.43;;
10491;SDS011;5293;51.464;-2.566;2023-02-28T01:49:17;7.90;;;4.30;;
10491;SDS011;5293;51.464;-2.566;2023-02-28T01:54:25;7.03;;;4.40;;
10491;SDS011;5293;51.464;-2.566;2023-02-28T01:57:03;6.77;;;4.33;;
10491;SDS011;5293;51.464;-2.566;2023-02-28T01:59:36;9.93;;;4.90;;
10491;SDS011;5293;51.464;-2.566;2023-02-28T02:02:12;8.07;;;4.40;;
10491;SDS011;5293;51.464;-2.566;2023-02-28T02:04:39;8.60;;;4.77;;
10491;SDS011;5293;51.464;-2.566;2023-02-28T02:07:13;13.47;;;4.57;;
10491;SDS011;5293;51.464;-2.566;2023-02-28T02:09:39;10.37;;;4.90;;
10491;SDS011;5293;51.464;-2.566;2023-02-28T02:12:09;11.20;;;4.47;;
10491;SDS011;5293;51.464;-2.566;2023-02-28T02:15:36;11.93;;;4.33;;
10491;SDS011;5293;51.464;-2.566;2023-02-28T02:17:50;9.80;;;5.37;;
10491;SDS011;5293;51.464;-2.566;2023-02-28T02:20:46;10.10;;;5.10;;
10491;SDS011;5293;51.464;-2.566;2023-02-28T02:37:13;12.53;;;5.37;;
10491;SDS011;5293;51.464;-2.566;2023-02-28T02:40:13;7.20;;;4.60;;
10491;SDS011;5293;51.464;-2.566;2023-02-28T02:45:36;8.67;;;4.90;;
10491;SDS011;5293;51.464;-2.566;2023-02-28T02:48:36;7.83;;;4.03;;
10491;SDS011;5293;51.464;-2.566;2023-02-28T02:51:07;7.83;;;4.20;;
10491;SDS011;5293;51.464;-2.566;2023-02-28T02:53:40;7.07;;;3.73;;
10491;SDS011;5293;51.464;-2.566;2023-02-28T02:56:14;7.33;;;4.00;;
10491;SDS011;5293;51.464;-2.566;2023-02-28T02:58:43;8.10;;;3.70;;
10491;SDS011;5293;51.464;-2.566;2023-02-28T03:01:13;8.73;;;3.63;;
10491;SDS011;5293;51.464;-2.566;2023-02-28T03:03:52;8.27;;;3.90;;
10491;SDS011;5293;51.464;-2.566;2023-02-28T03:06:26;7.93;;;3.93;;
10491;SDS011;5293;51.464;-2.566;2023-02-28T03:08:52;6.77;;;3.90;;
10491;SDS011;5293;51.464;-2.566;2023-02-28T03:11:18;4.97;;;3.50;;
10491;SDS011;5293;51.464;-2.566;2023-02-28T03:13:52;6.30;;;4.20;;
10491;SDS011;5293;51.464;-2.566;2023-02-28T03:16:32;7.73;;;3.87;;
10491;SDS011;5293;51.464;-2.566;2023-02-28T03:24:43;9.10;;;5.10;;
10491;SDS011;5293;51.464;-2.566;2023-02-28T03:27:35;12.73;;;5.90;;
10491;SDS011;5293;51.464;-2.566;2023-02-28T03:30:14;11.13;;;5.13;;
10491;SDS011;5293;51.464;-2.566;2023-02-28T03:33:03;10.73;;;5.17;;
10491;SDS011;5293;51.464;-2.566;2023-02-28T03:35:55;6.93;;;4.70;;
10491;SDS011;5293;51.464;-2.566;2023-02-28T03:41:52;10.03;;;5.27;;
10491;SDS011;5293;51.464;-2.566;2023-02-28T03:44:21;10.60;;;5.07;;
10491;SDS011;5293;51.464;-2.566;2023-02-28T03:47:01;8.43;;;4.80;;
10491;SDS011;5293;51.464;-2.566;2023-02-28T03:49:44;11.50;;;5.20;;
10491;SDS011;5293;51.464;-2.566;2023-02-28T03:52:14;9.30;;;4.97;;
10491;SDS011;5293;51.464;-2.566;2023-02-28T03:54:45;8.93;;;5.13;;
10491;SDS011;5293;51.464;-2.566;2023-02-28T03:57:23;8.77;;;4.70;;
10491;SDS011;5293;51.464;-2.566;2023-02-28T04:00:02;6.00;;;3.47;;
10491;SDS011;5293;51.464;-2.566;2023-02-28T04:02:33;7.20;;;3.37;;
10491;SDS011;5293;51.464;-2.566;2023-02-28T04:04:59;9.13;;;3.90;;
10491;SDS011;5293;51.464;-2.566;2023-02-28T04:07:28;9.40;;;4.20;;
10491;SDS011;5293;51.464;-2.566;2023-02-28T04:09:55;6.13;;;3.60;;
10491;SDS011;5293;51.464;-2.566;2023-02-28T04:12:21;5.47;;;3.20;;
10491;SDS011;5293;51.464;-2.566;2023-02-28T04:14:48;6.23;;;3.53;;
10491;SDS011;5293;51.464;-2.566;2023-02-28T04:17:14;5.50;;;3.30;;
10491;SDS011;5293;51.464;-2.566;2023-02-28T04:19:40;4.83;;;3.20;;
10491;SDS011;5293;51.464;-2.566;2023-02-28T04:22:06;4.30;;;3.00;;
10491;SDS011;5293;51.464;-2.566;2023-02-28T04:24:33;6.93;;;3.80;;
10491;SDS011;5293;51.464;-2.566;2023-02-28T04:26:59;5.97;;;3.67;;
10491;SDS011;5293;51.464;-2.566;2023-02-28T04:31:55;5.30;;;4.00;;
10491;SDS011;5293;51.464;-2.566;2023-02-28T04:34:26;4.73;;;3.37;;
10491;SDS011;5293;51.464;-2.566;2023-02-28T04:36:52;7.67;;;3.83;;
10491;SDS011;5293;51.464;-2.566;2023-02-28T04:39:20;4.43;;;3.50;;
10491;SDS011;5293;51.464;-2.566;2023-02-28T04:41:46;8.43;;;3.80;;
10491;SDS011;5293;51.464;-2.566;2023-02-28T04:44:12;9.93;;;3.87;;
10491;SDS011;5293;51.464;-2.566;2023-02-28T04:46:38;4.83;;;3.70;;
10491;SDS011;5293;51.464;-2.566;2023-02-28T04:49:04;6.00;;;3.97;;
10491;SDS011;5293;51.464;-2.566;2023-02-28T04:51:30;8.17;;;4.10;;
10491;SDS011;5293;51.464;-2.566;2023-02-28T04:53:55;7.70;;;3.93;;
10491;SDS011;5293;51.464;-2.566;2023-02-28T04:56:21;7.87;;;4.17;;
10491;SDS011;5293;51.464;-2.566;2023-02-28T04:58:47;5.57;;;4.20;;
10491;SDS011;5293;51.464;-2.566;2023-02-28T05:03:46;8.00;;;4.23;;
10491;SDS011;5293;51.464;-2.566;2023-02-28T05:06:13;6.10;;;4.00;;
10491;SDS011;5293;51.464;-2.566;2023-02-28T05:08:39;7.33;;;4.37;;
10491;SDS011;5293;51.464;-2.566;2023-02-28T05:11:06;6.03;;;3.87;;
10491;SDS011;5293;51.464;-2.566;2023-02-28T05:13:37;7.73;;;4.53;;
10491;SDS011;5293;51.464;-2.566;2023-02-28T05:16:02;8.97;;;4.70;;
10491;SDS011;5293;51.464;-2.566;2023-02-28T05:18:28;6.97;;;4.43;;
10491;SDS011;5293;51.464;-2.566;2023-02-28T05:20:54;5.77;;;3.80;;
10491;SDS011;5293;51.464;-2.566;2023-02-28T05:23:19;7.47;;;4.40;;
10491;SDS011;5293;51.464;-2.566;2023-02-28T05:25:47;7.73;;;3.93;;
10491;SDS011;5293;51.464;-2.566;2023-02-28T05:28:13;5.47;;;4.30;;
10491;SDS011;5293;51.464;-2.566;2023-02-28T05:30:39;6.60;;;4.10;;
10491;SDS011;5293;51.464;-2.566;2023-02-28T05:33:04;7.13;;;4.37;;
10491;SDS011;5293;51.464;-2.566;2023-02-28T05:35:30;5.93;;;4.17;;
10491;SDS011;5293;51.464;-2.566;2023-02-28T05:37:56;8.50;;;4.60;;
10491;SDS011;5293;51.464;-2.566;2023-02-28T05:40:22;8.10;;;3.93;;
10491;SDS011;5293;51.464;-2.566;2023-02-28T05:42:49;7.10;;;4.77;;
10491;SDS011;5293;51.464;-2.566;2023-02-28T05:45:15;9.00;;;4.90;;
10491;SDS011;5293;51.464;-2.566;2023-02-28T05:47:42;8.13;;;4.47;;
10491;SDS011;5293;51.464;-2.566;2023-02-28T05:50:08;7.63;;;4.67;;
10491;SDS011;5293;51.464;-2.566;2023-02-28T05:52:35;7.53;;;4.97;;
10491;SDS011;5293;51.464;-2.566;2023-02-28T05:55:01;7.50;;;4.77;;
10491;SDS011;5293;51.464;-2.566;2023-02-28T05:57:27;6.40;;;4.50;;
10491;SDS011;5293;51.464;-2.566;2023-02-28T05:59:52;5.13;;;4.60;;
10491;SDS011;5293;51.464;-2.566;2023-02-28T06:02:18;7.67;;;4.63;;
10491;SDS011;5293;51.464;-2.566;2023-02-28T06:04:44;7.77;;;4.87;;
10491;SDS011;5293;51.464;-2.566;2023-02-28T06:07:10;6.63;;;4.10;;
10491;SDS011;5293;51.464;-2.566;2023-02-28T06:09:36;8.47;;;4.73;;
10491;SDS011;5293;51.464;-2.566;2023-02-28T06:12:03;6.47;;;5.10;;
10491;SDS011;5293;51.464;-2.566;2023-02-28T06:14:32;6.40;;;4.90;;
10491;SDS011;5293;51.464;-2.566;2023-02-28T06:16:59;8.93;;;5.77;;
10491;SDS011;5293;51.464;-2.566;2023-02-28T06:19:26;7.77;;;5.80;;
10491;SDS011;5293;51.464;-2.566;2023-02-28T06:21:52;10.43;;;6.97;;
10491;SDS011;5293;51.464;-2.566;2023-02-28T06:24:21;10.30;;;8.03;;
10491;SDS011;5293;51.464;-2.566;2023-02-28T06:26:48;9.40;;;7.30;;
10491;SDS011;5293;51.464;-2.566;2023-02-28T06:29:14;9.67;;;6.30;;
10491;SDS011;5293;51.464;-2.566;2023-02-28T06:31:42;10.07;;;7.60;;
10491;SDS011;5293;51.464;-2.566;2023-02-28T06:34:08;14.77;;;8.57;;
10491;SDS011;5293;51.464;-2.566;2023-02-28T06:36:36;11.53;;;7.33;;
10491;SDS011;5293;51.464;-2.566;2023-02-28T06:39:06;10.07;;;6.83;;
10491;SDS011;5293;51.464;-2.566;2023-02-28T06:41:32;10.93;;;7.80;;
10491;SDS011;5293;51.464;-2.566;2023-02-28T06:44:10;10.47;;;7.87;;
10491;SDS011;5293;51.464;-2.566;2023-02-28T06:46:38;10.63;;;7.90;;
10491;SDS011;5293;51.464;-2.566;2023-02-28T06:49:05;12.03;;;7.97;;
10491;SDS011;5293;51.464;-2.566;2023-02-28T06:51:33;11.70;;;8.60;;
10491;SDS011;5293;51.464;-2.566;2023-02-28T06:53:59;12.33;;;8.57;;
10491;SDS011;5293;51.464;-2.566;2023-02-28T06:56:25;12.87;;;8.73;;
10491;SDS011;5293;51.464;-2.566;2023-02-28T06:58:51;11.03;;;8.90;;
10491;SDS011;5293;51.464;-2.566;2023-02-28T07:01:21;12.60;;;9.10;;
10491;SDS011;5293;51.464;-2.566;2023-02-28T07:03:50;12.93;;;8.90;;
10491;SDS011;5293;51.464;-2.566;2023-02-28T07:06:17;14.33;;;9.20;;
10491;SDS011;5293;51.464;-2.566;2023-02-28T07:08:48;12.43;;;9.33;;
10491;SDS011;5293;51.464;-2.566;2023-02-28T07:11:14;14.60;;;9.73;;
10491;SDS011;5293;51.464;-2.566;2023-02-28T07:13:39;14.10;;;10.40;;
10491;SDS011;5293;51.464;-2.566;2023-02-28T07:16:07;14.57;;;10.30;;
10491;SDS011;5293;51.464;-2.566;2023-02-28T07:18:35;15.80;;;10.60;;
10491;SDS011;5293;51.464;-2.566;2023-02-28T07:21:02;17.47;;;11.23;;
10491;SDS011;5293;51.464;-2.566;2023-02-28T07:23:29;16.23;;;11.20;;
10491;SDS011;5293;51.464;-2.566;2023-02-28T07:25:55;17.60;;;9.80;;
10491;SDS011;5293;51.464;-2.566;2023-02-28T07:28:20;18.07;;;10.80;;
10491;SDS011;5293;51.464;-2.566;2023-02-28T07:30:46;13.93;;;10.67;;
10491;SDS011;5293;51.464;-2.566;2023-02-28T07:33:13;14.77;;;10.73;;
10491;SDS011;5293;51.464;-2.566;2023-02-28T07:35:38;14.73;;;10.97;;
10491;SDS011;5293;51.464;-2.566;2023-02-28T07:38:04;17.07;;;10.70;;
10491;SDS011;5293;51.464;-2.566;2023-02-28T07:40:30;14.80;;;10.93;;
10491;SDS011;5293;51.464;-2.566;2023-02-28T07:42:56;17.97;;;11.43;;
10491;SDS011;5293;51.464;-2.566;2023-02-28T07:45:23;16.10;;;10.50;;
10491;SDS011;5293;51.464;-2.566;2023-02-28T07:47:49;16.00;;;10.90;;
10491;SDS011;5293;51.464;-2.566;2023-02-28T07:50:15;12.93;;;9.83;;
10491;SDS011;5293;51.464;-2.566;2023-02-28T07:52:41;13.63;;;10.53;;
10491;SDS011;5293;51.464;-2.566;2023-02-28T07:55:07;15.57;;;10.70;;
10491;SDS011;5293;51.464;-2.566;2023-02-28T07:57:34;15.80;;;10.27;;
10491;SDS011;5293;51.464;-2.566;2023-02-28T08:00:00;15.60;;;10.80;;
10491;SDS011;5293;51.464;-2.566;2023-02-28T08:02:28;18.33;;;11.10;;
10491;SDS011;5293;51.464;-2.566;2023-02-28T08:04:53;18.30;;;11.10;;
10491;SDS011;5293;51.464;-2.566;2023-02-28T08:07:19;19.10;;;11.13;;
10491;SDS011;5293;51.464;-2.566;2023-02-28T08:09:45;16.13;;;10.73;;
10491;SDS011;5293;51.464;-2.566;2023-02-28T08:12:11;20.03;;;11.73;;
10491;SDS011;5293;51.464;-2.566;2023-02-28T08:14:37;18.17;;;11.50;;
10491;SDS011;5293;51.464;-2.566;2023-02-28T08:17:04;14.57;;;10.53;;
10491;SDS011;5293;51.464;-2.566;2023-02-28T08:19:30;14.33;;;11.07;;
10491;SDS011;5293;51.464;-2.566;2023-02-28T08:21:57;15.97;;;11.03;;
10491;SDS011;5293;51.464;-2.566;2023-02-28T08:24:23;15.23;;;10.73;;
10491;SDS011;5293;51.464;-2.566;2023-02-28T08:26:49;15.80;;;10.83;;
10491;SDS011;5293;51.464;-2.566;2023-02-28T08:29:15;17.33;;;10.47;;
10491;SDS011;5293;51.464;-2.566;2023-02-28T08:31:41;18.00;;;10.43;;
10491;SDS011;5293;51.464;-2.566;2023-02-28T08:34:11;16.53;;;10.23;;
10491;SDS011;5293;51.464;-2.566;2023-02-28T08:36:38;15.93;;;9.67;;
10491;SDS011;5293;51.464;-2.566;2023-02-28T08:39:04;13.93;;;9.53;;
10491;SDS011;5293;51.464;-2.566;2023-02-28T08:41:31;13.93;;;9.47;;
10491;SDS011;5293;51.464;-2.566;2023-02-28T08:43:57;12.70;;;8.67;;
10491;SDS011;5293;51.464;-2.566;2023-02-28T08:46:23;12.77;;;8.93;;
10491;SDS011;5293;51.464;-2.566;2023-02-28T08:48:53;14.20;;;7.73;;
10491;SDS011;5293;51.464;-2.566;2023-02-28T08:51:20;13.00;;;7.57;;
10491;SDS011;5293;51.464;-2.566;2023-02-28T08:53:52;12.90;;;8.37;;
10491;SDS011;5293;51.464;-2.566;2023-02-28T08:56:20;11.63;;;7.77;;
10491;SDS011;5293;51.464;-2.566;2023-02-28T08:58:47;10.87;;;8.30;;
10491;SDS011;5293;51.464;-2.566;2023-02-28T09:01:15;10.20;;;8.50;;
10491;SDS011;5293;51.464;-2.566;2023-02-28T09:03:42;12.67;;;9.17;;
10491;SDS011;5293;51.464;-2.566;2023-02-28T09:06:09;12.67;;;9.00;;
10491;SDS011;5293;51.464;-2.566;2023-02-28T09:08:35;14.50;;;10.00;;
10491;SDS011;5293;51.464;-2.566;2023-02-28T09:11:01;15.33;;;10.33;;
10491;SDS011;5293;51.464;-2.566;2023-02-28T09:13:28;15.60;;;10.33;;
10491;SDS011;5293;51.464;-2.566;2023-02-28T09:15:56;16.40;;;10.57;;
10491;SDS011;5293;51.464;-2.566;2023-02-28T09:18:24;15.87;;;10.73;;
10491;SDS011;5293;51.464;-2.566;2023-02-28T09:20:50;16.73;;;11.00;;
10491;SDS011;5293;51.464;-2.566;2023-02-28T09:23:15;17.27;;;10.73;;
10491;SDS011;5293;51.464;-2.566;2023-02-28T09:25:45;20.47;;;13.67;;
10491;SDS011;5293;51.464;-2.566;2023-02-28T09:28:19;17.60;;;11.50;;
10491;SDS011;5293;51.464;-2.566;2023-02-28T09:30:46;16.80;;;10.50;;
10491;SDS011;5293;51.464;-2.566;2023-02-28T09:33:13;19.07;;;11.37;;
10491;SDS011;5293;51.464;-2.566;2023-02-28T09:35:39;19.93;;;11.07;;
10491;SDS011;5293;51.464;-2.566;2023-02-28T09:38:05;16.13;;;10.70;;
10491;SDS011;5293;51.464;-2.566;2023-02-28T09:40:34;14.90;;;10.90;;
10491;SDS011;5293;51.464;-2.566;2023-02-28T09:43:02;16.87;;;11.23;;
10491;SDS011;5293;51.464;-2.566;2023-02-28T09:45:30;16.10;;;11.17;;
10491;SDS011;5293;51.464;-2.566;2023-02-28T09:48:01;18.67;;;11.67;;
10491;SDS011;5293;51.464;-2.566;2023-02-28T09:50:43;15.20;;;11.07;;
10491;SDS011;5293;51.464;-2.566;2023-02-28T09:53:19;18.57;;;10.93;;
10491;SDS011;5293;51.464;-2.566;2023-02-28T09:55:53;14.83;;;10.43;;
10491;SDS011;5293;51.464;-2.566;2023-02-28T09:58:26;15.27;;;10.30;;
10491;SDS011;5293;51.464;-2.566;2023-02-28T10:00:59;22.60;;;12.33;;
10491;SDS011;5293;51.464;-2.566;2023-02-28T10:03:47;17.37;;;10.50;;
10491;SDS011;5293;51.464;-2.566;2023-02-28T10:06:21;15.80;;;10.73;;
10491;SDS011;5293;51.464;-2.566;2023-02-28T10:11:38;14.63;;;9.97;;
10491;SDS011;5293;51.464;-2.566;2023-02-28T10:16:47;15.63;;;10.47;;
10491;SDS011;5293;51.464;-2.566;2023-02-28T10:19:35;13.73;;;9.00;;
10491;SDS011;5293;51.464;-2.566;2023-02-28T10:22:39;12.53;;;8.70;;
10491;SDS011;5293;51.464;-2.566;2023-02-28T10:25:15;15.97;;;9.20;;
10491;SDS011;5293;51.464;-2.566;2023-02-28T10:27:43;15.13;;;9.57;;
10491;SDS011;5293;51.464;-2.566;2023-02-28T10:30:09;16.13;;;9.53;;
10491;SDS011;5293;51.464;-2.566;2023-02-28T10:32:37;17.97;;;8.93;;
10491;SDS011;5293;51.464;-2.566;2023-02-28T10:37:50;15.77;;;8.00;;
10491;SDS011;5293;51.464;-2.566;2023-02-28T10:40:34;12.80;;;8.10;;
10491;SDS011;5293;51.464;-2.566;2023-02-28T10:45:28;13.07;;;8.60;;
10491;SDS011;5293;51.464;-2.566;2023-02-28T10:48:01;12.73;;;7.97;;
10491;SDS011;5293;51.464;-2.566;2023-02-28T11:01:33;13.83;;;8.20;;
10491;SDS011;5293;51.464;-2.566;2023-02-28T11:04:50;14.47;;;8.43;;
10491;SDS011;5293;51.464;-2.566;2023-02-28T11:07:05;15.30;;;8.43;;
10491;SDS011;5293;51.464;-2.566;2023-02-28T11:09:35;22.43;;;9.83;;
10491;SDS011;5293;51.464;-2.566;2023-02-28T11:12:04;15.00;;;8.47;;
10491;SDS011;5293;51.464;-2.566;2023-02-28T11:14:50;13.47;;;8.07;;
10491;SDS011;5293;51.464;-2.566;2023-02-28T11:17:29;13.03;;;8.17;;
10491;SDS011;5293;51.464;-2.566;2023-02-28T11:20:01;10.40;;;7.20;;
10491;SDS011;5293;51.464;-2.566;2023-02-28T11:22:32;12.03;;;7.00;;
10491;SDS011;5293;51.464;-2.566;2023-02-28T11:25:06;10.60;;;7.33;;
10491;SDS011;5293;51.464;-2.566;2023-02-28T11:27:54;11.00;;;7.17;;
10491;SDS011;5293;51.464;-2.566;2023-02-28T11:30:27;13.97;;;8.10;;
10491;SDS011;5293;51.464;-2.566;2023-02-28T11:33:49;13.57;;;8.33;;
10491;SDS011;5293;51.464;-2.566;2023-02-28T11:35:55;14.13;;;8.03;;
10491;SDS011;5293;51.464;-2.566;2023-02-28T11:38:24;13.40;;;8.00;;
10491;SDS011;5293;51.464;-2.566;2023-02-28T11:41:17;16.73;;;8.53;;
10491;SDS011;5293;51.464;-2.566;2023-02-28T11:46:24;16.80;;;8.63;;
10491;SDS011;5293;51.464;-2.566;2023-02-28T11:49:22;16.07;;;9.47;;
10491;SDS011;5293;51.464;-2.566;2023-02-28T11:52:21;15.03;;;8.77;;
10491;SDS011;5293;51.464;-2.566;2023-02-28T11:55:08;13.07;;;8.70;;
10491;SDS011;5293;51.464;-2.566;2023-02-28T11:58:05;15.13;;;9.07;;
10491;SDS011;5293;51.464;-2.566;2023-02-28T12:00:55;12.57;;;7.70;;
10491;SDS011;5293;51.464;-2.566;2023-02-28T12:06:23;10.20;;;5.60;;
10491;SDS011;5293;51.464;-2.566;2023-02-28T12:11:55;12.17;;;6.70;;
10491;SDS011;5293;51.464;-2.566;2023-02-28T12:28:23;9.57;;;5.50;;
10491;SDS011;5293;51.464;-2.566;2023-02-28T12:30:58;7.30;;;4.70;;
10491;SDS011;5293;51.464;-2.566;2023-02-28T12:33:35;6.87;;;4.40;;
10491;SDS011;5293;51.464;-2.566;2023-02-28T12:36:09;5.53;;;4.43;;
10491;SDS011;5293;51.464;-2.566;2023-02-28T12:41:19;6.87;;;4.73;;
10491;SDS011;5293;51.464;-2.566;2023-02-28T12:44:00;5.40;;;3.97;;
10491;SDS011;5293;51.464;-2.566;2023-02-28T12:46:38;5.53;;;3.70;;
10491;SDS011;5293;51.464;-2.566;2023-02-28T12:49:09;5.97;;;4.33;;
10491;SDS011;5293;51.464;-2.566;2023-02-28T12:51:41;6.53;;;4.33;;
10491;SDS011;5293;51.464;-2.566;2023-02-28T12:56:49;8.17;;;4.27;;
10491;SDS011;5293;51.464;-2.566;2023-02-28T13:09:59;5.00;;;4.07;;
10491;SDS011;5293;51.464;-2.566;2023-02-28T13:12:27;5.63;;;3.97;;
10491;SDS011;5293;51.464;-2.566;2023-02-28T13:15:16;7.17;;;4.43;;
10491;SDS011;5293;51.464;-2.566;2023-02-28T13:17:56;6.70;;;4.77;;
10491;SDS011;5293;51.464;-2.566;2023-02-28T13:20:33;6.07;;;4.90;;
10491;SDS011;5293;51.464;-2.566;2023-02-28T13:23:01;6.43;;;4.80;;
10491;SDS011;5293;51.464;-2.566;2023-02-28T13:27:59;8.43;;;4.93;;
10491;SDS011;5293;51.464;-2.566;2023-02-28T13:38:55;7.03;;;5.07;;
10491;SDS011;5293;51.464;-2.566;2023-02-28T14:05:23;4.23;;;3.30;;
10491;SDS011;5293;51.464;-2.566;2023-02-28T14:07:55;4.20;;;3.50;;
10491;SDS011;5293;51.464;-2.566;2023-02-28T14:10:33;3.50;;;2.90;;
10491;SDS011;5293;51.464;-2.566;2023-02-28T14:16:05;4.13;;;3.10;;
10491;SDS011;5293;51.464;-2.566;2023-02-28T14:18:32;3.70;;;2.73;;
10491;SDS011;5293;51.464;-2.566;2023-02-28T14:21:10;4.17;;;3.00;;
10491;SDS011;5293;51.464;-2.566;2023-02-28T14:37:24;3.67;;;3.00;;
10491;SDS011;5293;51.464;-2.566;2023-02-28T14:39:54;4.90;;;3.43;;
10491;SDS011;5293;51.464;-2.566;2023-02-28T14:44:56;5.57;;;3.77;;
10491;SDS011;5293;51.464;-2.566;2023-02-28T14:47:23;6.50;;;3.07;;
10491;SDS011;5293;51.464;-2.566;2023-02-28T14:49:52;4.53;;;3.70;;
10491;SDS011;5293;51.464;-2.566;2023-02-28T14:52:20;5.57;;;2.93;;
10491;SDS011;5293;51.464;-2.566;2023-02-28T14:54:54;3.97;;;2.87;;
10491;SDS011;5293;51.464;-2.566;2023-02-28T15:02:37;3.50;;;2.70;;
10491;SDS011;5293;51.464;-2.566;2023-02-28T15:07:41;3.10;;;2.80;;
10491;SDS011;5293;51.464;-2.566;2023-02-28T15:12:35;3.30;;;2.40;;
10491;SDS011;5293;51.464;-2.566;2023-02-28T15:15:03;4.33;;;2.90;;
10491;SDS011;5293;51.464;-2.566;2023-02-28T15:17:29;5.70;;;2.93;;
10491;SDS011;5293;51.464;-2.566;2023-02-28T15:19:55;4.80;;;3.03;;
10491;SDS011;5293;51.464;-2.566;2023-02-28T15:22:28;7.27;;;3.40;;
10491;SDS011;5293;51.464;-2.566;2023-02-28T15:25:00;3.97;;;2.70;;
10491;SDS011;5293;51.464;-2.566;2023-02-28T15:27:31;4.93;;;3.60;;
10491;SDS011;5293;51.464;-2.566;2023-02-28T15:30:05;4.93;;;3.23;;
10491;SDS011;5293;51.464;-2.566;2023-02-28T15:35:24;5.27;;;3.47;;
10491;SDS011;5293;51.464;-2.566;2023-02-28T15:40:28;5.97;;;4.10;;
10491;SDS011;5293;51.464;-2.566;2023-02-28T15:45:44;5.10;;;3.80;;
10491;SDS011;5293;51.464;-2.566;2023-02-28T15:48:17;5.20;;;3.53;;
10491;SDS011;5293;51.464;-2.566;2023-02-28T15:51:07;5.97;;;4.03;;
10491;SDS011;5293;51.464;-2.566;2023-02-28T15:53:59;5.57;;;3.93;;
10491;SDS011;5293;51.464;-2.566;2023-02-28T15:58:58;5.40;;;3.97;;
10491;SDS011;5293;51.464;-2.566;2023-02-28T16:01:36;7.43;;;4.03;;
10491;SDS011;5293;51.464;-2.566;2023-02-28T16:04:04;3.93;;;3.03;;
10491;SDS011;5293;51.464;-2.566;2023-02-28T16:06:42;3.17;;;2.60;;
10491;SDS011;5293;51.464;-2.566;2023-02-28T16:09:12;4.70;;;3.07;;
10491;SDS011;5293;51.464;-2.566;2023-02-28T16:11:41;3.33;;;2.60;;
10491;SDS011;5293;51.464;-2.566;2023-02-28T16:14:19;3.77;;;2.90;;
10491;SDS011;5293;51.464;-2.566;2023-02-28T16:16:49;4.57;;;2.47;;
10491;SDS011;5293;51.464;-2.566;2023-02-28T16:19:17;3.10;;;2.60;;
10491;SDS011;5293;51.464;-2.566;2023-02-28T16:21:44;3.30;;;3.00;;
10491;SDS011;5293;51.464;-2.566;2023-02-28T16:24:10;2.67;;;2.40;;
10491;SDS011;5293;51.464;-2.566;2023-02-28T16:26:35;2.67;;;2.30;;
10491;SDS011;5293;51.464;-2.566;2023-02-28T16:29:04;3.00;;;2.60;;
10491;SDS011;5293;51.464;-2.566;2023-02-28T16:31:30;5.10;;;3.10;;
10491;SDS011;5293;51.464;-2.566;2023-02-28T16:34:02;5.33;;;3.40;;
10491;SDS011;5293;51.464;-2.566;2023-02-28T16:36:28;2.53;;;2.33;;
10491;SDS011;5293;51.464;-2.566;2023-02-28T16:38:54;4.50;;;2.60;;
10491;SDS011;5293;51.464;-2.566;2023-02-28T16:41:21;2.20;;;2.10;;
10491;SDS011;5293;51.464;-2.566;2023-02-28T16:43:50;4.47;;;2.90;;
10491;SDS011;5293;51.464;-2.566;2023-02-28T16:46:18;2.40;;;2.10;;
10491;SDS011;5293;51.464;-2.566;2023-02-28T16:48:45;2.47;;;2.20;;
10491;SDS011;5293;51.464;-2.566;2023-02-28T16:51:16;2.70;;;2.43;;
10491;SDS011;5293;51.464;-2.566;2023-02-28T16:53:42;4.17;;;2.77;;
10491;SDS011;5293;51.464;-2.566;2023-02-28T16:56:19;3.60;;;2.37;;
10491;SDS011;5293;51.464;-2.566;2023-02-28T16:58:47;2.50;;;2.07;;
10491;SDS011;5293;51.464;-2.566;2023-02-28T17:01:14;6.13;;;2.10;;
10491;SDS011;5293;51.464;-2.566;2023-02-28T17:03:40;2.53;;;2.23;;
10491;SDS011;5293;51.464;-2.566;2023-02-28T17:06:06;2.30;;;1.73;;
10491;SDS011;5293;51.464;-2.566;2023-02-28T17:08:41;4.77;;;2.33;;
10491;SDS011;5293;51.464;-2.566;2023-02-28T17:11:08;3.07;;;2.57;;
10491;SDS011;5293;51.464;-2.566;2023-02-28T17:13:34;3.50;;;3.00;;
10491;SDS011;5293;51.464;-2.566;2023-02-28T17:15:59;3.90;;;3.37;;
10491;SDS011;5293;51.464;-2.566;2023-02-28T17:18:25;2.83;;;2.43;;
10491;SDS011;5293;51.464;-2.566;2023-02-28T17:20:53;4.13;;;2.63;;
10491;SDS011;5293;51.464;-2.566;2023-02-28T17:23:19;4.63;;;3.13;;
10491;SDS011;5293;51.464;-2.566;2023-02-28T17:25:45;4.33;;;2.97;;
10491;SDS011;5293;51.464;-2.566;2023-02-28T17:28:18;2.97;;;2.77;;
10491;SDS011;5293;51.464;-2.566;2023-02-28T17:30:45;5.10;;;2.70;;
10491;SDS011;5293;51.464;-2.566;2023-02-28T17:33:12;2.40;;;2.20;;
10491;SDS011;5293;51.464;-2.566;2023-02-28T17:35:38;4.73;;;2.80;;
10491;SDS011;5293;51.464;-2.566;2023-02-28T17:38:03;6.00;;;3.60;;
10491;SDS011;5293;51.464;-2.566;2023-02-28T17:40:29;3.57;;;2.70;;
10491;SDS011;5293;51.464;-2.566;2023-02-28T17:42:55;4.47;;;3.33;;
10491;SDS011;5293;51.464;-2.566;2023-02-28T17:45:21;3.10;;;2.60;;
10491;SDS011;5293;51.464;-2.566;2023-02-28T17:47:48;2.23;;;2.00;;